Terminal Aerodrome Forecast
Issued by NWS

Home | Current Version | Previous Version | Text Only | Print | Product List | Glossary On
Versions: 1 2 3 4 5 6 7 8 9 10 11 12
077
FTUS46 KPDT 131135
TAFPSC
TAF
KPSC 131135Z 1312/1412 34003KT P6SM OVC019
      TEMPO 1313/1316 6SM BR OVC021
     FM131800 02004KT P6SM OVC021=

USA.gov is the U.S. government's official web portal to all federal, state and local government web resources and services.